createdAt,value
2023-02-06T00:02:24.401Z,3.27
2023-02-06T00:05:02.152Z,3.10
2023-02-06T00:07:36.740Z,3.50
2023-02-06T00:10:04.800Z,3.73
2023-02-06T00:12:38.626Z,3.30
2023-02-06T00:15:12.982Z,3.60
2023-02-06T00:17:45.973Z,4.00
2023-02-06T00:20:20.922Z,3.00
2023-02-06T00:22:48.228Z,3.00
2023-02-06T00:25:23.427Z,3.27
2023-02-06T00:28:18.400Z,3.70
2023-02-06T00:31:12.765Z,3.30
2023-02-06T00:33:40.204Z,3.40
2023-02-06T00:39:02.727Z,3.60
2023-02-06T00:41:58.798Z,3.13
2023-02-06T00:44:25.822Z,3.37
2023-02-06T00:47:00.795Z,3.00
2023-02-06T00:49:39.395Z,3.53
2023-02-06T00:52:15.662Z,3.37
2023-02-06T00:54:42.344Z,3.23
2023-02-06T00:57:15.676Z,3.37
2023-02-06T00:59:48.658Z,3.13
2023-02-06T01:05:05.831Z,2.40
2023-02-06T01:07:33.050Z,2.93
2023-02-06T01:10:06.983Z,3.23
2023-02-06T01:12:41.645Z,3.50
2023-02-06T01:15:20.709Z,3.30
2023-02-06T01:17:47.552Z,3.03
2023-02-06T01:20:21.935Z,3.50
2023-02-06T01:22:48.824Z,3.47
2023-02-06T01:25:25.911Z,3.50
2023-02-06T01:27:59.289Z,3.73
2023-02-06T01:30:32.801Z,3.47
2023-02-06T01:32:59.684Z,2.87
2023-02-06T01:35:37.006Z,3.03
2023-02-06T01:38:04.024Z,3.30
2023-02-06T01:40:37.896Z,3.03
2023-02-06T01:43:17.886Z,3.20
2023-02-06T01:45:55.665Z,2.77
2023-02-06T01:48:32.770Z,2.97
2023-02-06T01:51:07.697Z,3.23
2023-02-06T01:53:38.636Z,3.37
2023-02-06T01:56:21.449Z,3.60
2023-02-06T01:58:54.844Z,3.03
2023-02-06T02:01:28.761Z,3.00
2023-02-06T02:04:02.344Z,3.47
2023-02-06T02:06:52.711Z,3.43
2023-02-06T02:09:26.753Z,3.10
2023-02-06T02:11:59.839Z,3.77
2023-02-06T02:14:33.905Z,2.67
2023-02-06T02:17:27.854Z,2.97
2023-02-06T02:20:13.003Z,3.17
2023-02-06T02:22:48.810Z,2.90
2023-02-06T02:25:58.107Z,3.40
2023-02-06T02:28:56.898Z,2.57
2023-02-06T02:31:53.778Z,3.20
2023-02-06T02:34:54.781Z,2.60
2023-02-06T02:37:36.567Z,2.77
2023-02-06T02:40:34.750Z,2.67
2023-02-06T02:43:07.429Z,3.03
2023-02-06T02:45:43.805Z,2.70
2023-02-06T02:48:19.449Z,2.60
2023-02-06T02:50:58.017Z,2.90
2023-02-06T02:53:25.820Z,2.63
2023-02-06T02:56:00.018Z,2.73
2023-02-06T02:58:34.269Z,2.73
2023-02-06T03:01:11.745Z,2.97
2023-02-06T03:03:46.859Z,3.23
2023-02-06T03:06:48.761Z,3.53
2023-02-06T03:09:33.608Z,2.87
2023-02-06T03:12:19.716Z,3.10
2023-02-06T03:15:14.064Z,2.43
2023-02-06T03:18:01.912Z,2.93
2023-02-06T03:20:32.009Z,3.00
2023-02-06T03:23:07.993Z,3.10
2023-02-06T03:25:49.504Z,3.53
2023-02-06T03:28:30.770Z,3.60
2023-02-06T03:31:05.158Z,2.93
2023-02-06T03:33:44.837Z,3.43
2023-02-06T03:36:56.462Z,2.70
2023-02-06T03:39:29.689Z,2.97
2023-02-06T03:42:06.726Z,3.60
2023-02-06T03:44:46.740Z,3.70
2023-02-06T03:47:22.786Z,2.97
2023-02-06T03:49:57.727Z,3.23
2023-02-06T03:52:35.778Z,3.10
2023-02-06T03:55:12.916Z,3.07
2023-02-06T03:57:48.772Z,2.83
2023-02-06T04:00:22.856Z,3.00
2023-02-06T04:03:03.946Z,3.40
2023-02-06T04:05:37.850Z,3.07
2023-02-06T04:08:07.975Z,3.83
2023-02-06T04:10:35.061Z,2.67
2023-02-06T04:13:08.857Z,3.40
2023-02-06T04:15:38.951Z,3.17
2023-02-06T04:18:12.844Z,3.00
2023-02-06T04:20:41.105Z,3.30
2023-02-06T04:23:16.676Z,2.60
2023-02-06T04:25:46.432Z,2.63
2023-02-06T04:28:26.739Z,3.00
2023-02-06T04:31:03.125Z,2.80
2023-02-06T04:33:37.010Z,3.30
2023-02-06T04:36:14.204Z,2.63
2023-02-06T04:38:47.822Z,2.87
2023-02-06T04:41:14.837Z,2.97
2023-02-06T04:43:47.829Z,3.53
2023-02-06T04:46:41.627Z,2.53
2023-02-06T04:49:47.800Z,3.07
2023-02-06T04:52:20.769Z,2.93
2023-02-06T04:54:47.672Z,2.80
2023-02-06T04:57:14.336Z,2.40
2023-02-06T04:59:47.823Z,2.77
2023-02-06T05:02:40.047Z,2.77
2023-02-06T05:05:08.600Z,2.77
2023-02-06T05:07:42.823Z,3.17
2023-02-06T05:10:10.357Z,4.10
2023-02-06T05:12:43.799Z,2.90
2023-02-06T05:15:11.103Z,3.07
2023-02-06T05:17:44.882Z,3.23
2023-02-06T05:20:12.260Z,3.30
2023-02-06T05:22:45.826Z,3.73
2023-02-06T05:25:31.057Z,3.20
2023-02-06T05:28:06.940Z,3.07
2023-02-06T05:30:40.782Z,3.30
2023-02-06T05:33:10.445Z,3.23
2023-02-06T05:35:46.732Z,3.00
2023-02-06T05:38:16.602Z,2.80
2023-02-06T05:40:49.823Z,2.80
2023-02-06T05:43:16.751Z,2.93
2023-02-06T05:45:49.883Z,2.27
2023-02-06T05:48:23.941Z,2.40
2023-02-06T05:53:44.594Z,2.83
2023-02-06T05:56:31.822Z,2.93
2023-02-06T05:58:58.682Z,2.60
2023-02-06T06:01:35.844Z,3.30
2023-02-06T06:04:03.004Z,3.10
2023-02-06T06:06:46.829Z,2.40
2023-02-06T06:09:19.919Z,2.17
2023-02-06T06:14:39.872Z,2.33
2023-02-06T06:17:06.904Z,2.23
2023-02-06T06:19:39.799Z,2.53
2023-02-06T06:22:10.599Z,2.33
2023-02-06T06:24:43.808Z,2.40
2023-02-06T06:27:23.926Z,2.63
2023-02-06T06:30:03.809Z,2.60
2023-02-06T06:32:30.637Z,2.43
2023-02-06T06:35:03.953Z,2.33
2023-02-06T06:37:36.809Z,3.27
2023-02-06T06:40:10.927Z,2.67
2023-02-06T06:42:37.971Z,3.00
2023-02-06T06:45:11.834Z,2.30
2023-02-06T06:47:44.793Z,2.90
2023-02-06T06:50:11.916Z,2.63
2023-02-06T06:52:44.865Z,3.10
2023-02-06T06:55:11.671Z,2.57
2023-02-06T06:57:44.864Z,2.90
2023-02-06T07:00:12.734Z,3.17
2023-02-06T07:05:34.438Z,3.07
2023-02-06T07:08:07.824Z,3.07
2023-02-06T07:10:34.973Z,3.33
2023-02-06T07:13:07.882Z,3.63
2023-02-06T07:15:40.977Z,3.63
2023-02-06T07:18:07.765Z,3.40
2023-02-06T07:20:44.747Z,3.10
2023-02-06T07:23:11.592Z,3.33
2023-02-06T07:25:45.026Z,4.03
2023-02-06T07:28:17.985Z,3.67
2023-02-06T07:31:04.601Z,6.57
2023-02-06T07:33:31.472Z,5.00
2023-02-06T07:38:38.819Z,4.07
2023-02-06T07:41:12.814Z,3.53
2023-02-06T07:43:39.788Z,3.93
2023-02-06T07:48:59.372Z,3.63
2023-02-06T07:51:44.864Z,4.03
2023-02-06T07:54:12.576Z,3.70
2023-02-06T07:56:51.029Z,3.80
2023-02-06T07:59:25.555Z,4.07
2023-02-06T08:02:10.332Z,4.57
2023-02-06T08:04:51.773Z,4.23
2023-02-06T08:07:25.920Z,4.00
2023-02-06T08:09:59.035Z,3.87
2023-02-06T08:12:26.813Z,4.30
2023-02-06T08:14:59.952Z,3.57
2023-02-06T08:17:27.318Z,3.67
2023-02-06T08:19:54.429Z,3.70
2023-02-06T08:22:34.850Z,4.40
2023-02-06T08:25:01.774Z,4.00
2023-02-06T08:27:39.672Z,4.03
2023-02-06T08:30:21.396Z,5.27
2023-02-06T08:32:48.455Z,4.80
2023-02-06T08:35:25.329Z,4.80
2023-02-06T08:37:59.010Z,4.50
2023-02-06T08:40:34.847Z,4.70
2023-02-06T08:43:02.295Z,4.63
2023-02-06T08:45:29.190Z,4.77
2023-02-06T08:48:02.888Z,4.83
2023-02-06T08:50:29.870Z,4.60
2023-02-06T08:53:02.981Z,4.53
2023-02-06T08:55:33.315Z,4.30
2023-02-06T08:58:06.934Z,4.47
2023-02-06T09:00:36.864Z,4.60
2023-02-06T09:03:20.982Z,4.33
2023-02-06T09:08:45.911Z,5.30
2023-02-06T09:14:21.871Z,5.80
2023-02-06T09:17:00.652Z,4.97
2023-02-06T09:19:33.916Z,5.03
2023-02-06T09:22:00.690Z,5.00
2023-02-06T09:24:37.090Z,5.43
2023-02-06T09:27:35.966Z,4.77
2023-02-06T09:30:11.911Z,5.47
2023-02-06T09:32:44.901Z,4.80
2023-02-06T09:35:18.040Z,5.50
2023-02-06T09:37:51.864Z,5.27
2023-02-06T09:40:27.573Z,4.90
2023-02-06T09:43:08.931Z,5.63
2023-02-06T09:45:36.193Z,5.30
2023-02-06T09:48:38.940Z,4.13
2023-02-06T09:51:37.231Z,5.73
2023-02-06T09:54:15.952Z,5.77
2023-02-06T09:56:57.048Z,5.33
2023-02-06T09:59:35.872Z,5.57
2023-02-06T10:02:55.873Z,6.43
2023-02-06T10:05:51.675Z,5.97
2023-02-06T10:09:03.984Z,5.37
2023-02-06T10:14:51.004Z,6.37
2023-02-06T10:17:25.943Z,6.43
2023-02-06T10:20:09.007Z,6.10
2023-02-06T10:22:46.847Z,6.57
2023-02-06T10:25:36.177Z,6.00
2023-02-06T10:28:43.976Z,6.67
2023-02-06T10:31:32.174Z,6.90
2023-02-06T10:34:38.247Z,7.40
2023-02-06T10:37:25.973Z,5.73
2023-02-06T10:40:33.268Z,6.00
2023-02-06T10:43:23.046Z,5.10
2023-02-06T10:46:30.987Z,5.23
2023-02-06T10:49:12.587Z,5.23
2023-02-06T10:52:05.136Z,6.07
2023-02-06T10:54:47.305Z,5.90
2023-02-06T10:57:44.420Z,5.97
2023-02-06T11:00:50.087Z,4.93
2023-02-06T11:03:29.175Z,5.40
2023-02-06T11:05:59.666Z,5.30
2023-02-06T11:08:43.922Z,5.22
2023-02-06T11:11:37.577Z,5.73
2023-02-06T11:14:26.509Z,6.00
2023-02-06T11:16:53.864Z,5.67
2023-02-06T11:19:32.893Z,5.38
2023-02-06T11:22:12.032Z,5.38
2023-02-06T11:24:47.567Z,5.78
2023-02-06T11:27:27.126Z,5.73
2023-02-06T11:30:15.125Z,6.07
2023-02-06T11:33:03.682Z,5.60
2023-02-06T11:35:39.763Z,5.40
2023-02-06T11:38:29.951Z,6.53
2023-02-06T11:41:18.709Z,5.35
2023-02-06T11:43:56.897Z,5.53
2023-02-06T11:46:51.722Z,5.05
2023-02-06T11:50:00.939Z,4.80
2023-02-06T11:52:41.707Z,5.50
2023-02-06T11:55:48.907Z,4.97
2023-02-06T11:58:15.661Z,4.85
2023-02-06T12:01:29.073Z,5.93
2023-02-06T12:04:29.933Z,9.13
2023-02-06T12:07:33.921Z,15.80
2023-02-06T12:10:10.415Z,5.75
2023-02-06T12:12:42.475Z,28.80
2023-02-06T12:15:47.033Z,6.47
2023-02-06T12:18:19.467Z,4.85
2023-02-06T12:20:59.904Z,5.30
2023-02-06T12:23:40.087Z,5.43
2023-02-06T12:26:45.443Z,5.78
2023-02-06T12:29:37.958Z,5.55
2023-02-06T12:32:26.022Z,4.88
2023-02-06T12:35:00.740Z,4.90
2023-02-06T12:37:48.941Z,4.70
2023-02-06T12:40:58.001Z,4.45
2023-02-06T12:43:31.995Z,4.85
2023-02-06T12:46:58.982Z,5.60
2023-02-06T12:49:38.952Z,5.18
2023-02-06T12:52:17.023Z,4.97
2023-02-06T12:55:07.325Z,5.32
2023-02-06T12:57:35.912Z,5.38
2023-02-06T13:00:27.931Z,4.55
2023-02-06T13:03:22.949Z,4.45
2023-02-06T13:05:55.829Z,5.05
2023-02-06T13:08:45.927Z,4.60
2023-02-06T13:11:48.886Z,5.20
2023-02-06T13:14:30.970Z,5.07
2023-02-06T13:17:33.112Z,5.60
2023-02-06T13:20:12.062Z,4.45
2023-02-06T13:22:57.919Z,4.53
2023-02-06T13:25:55.752Z,5.68
2023-02-06T13:28:29.024Z,4.35
2023-02-06T13:31:13.538Z,3.85
2023-02-06T13:33:52.099Z,4.43
2023-02-06T13:36:33.988Z,3.80
2023-02-06T13:39:15.378Z,3.50
2023-02-06T13:44:33.545Z,3.40
2023-02-06T13:47:35.128Z,3.55
2023-02-06T13:50:28.466Z,3.03
2023-02-06T13:53:32.967Z,3.22
2023-02-06T13:56:37.802Z,2.95
2023-02-06T13:59:22.196Z,2.95
2023-02-06T14:01:49.550Z,3.15
2023-02-06T14:04:55.287Z,3.50
2023-02-06T14:07:37.194Z,3.70
2023-02-06T14:10:18.479Z,2.92
2023-02-06T14:13:08.338Z,2.60
2023-02-06T14:16:39.067Z,2.30
2023-02-06T14:19:05.924Z,2.15
2023-02-06T14:22:12.279Z,2.25
2023-02-06T14:25:32.491Z,2.88
2023-02-06T14:28:31.039Z,3.22
2023-02-06T14:31:40.130Z,2.38
2023-02-06T14:34:34.167Z,3.03
2023-02-06T14:37:25.112Z,2.15
2023-02-06T14:39:56.896Z,3.03
2023-02-06T14:42:44.048Z,3.35
2023-02-06T14:45:41.040Z,2.40
2023-02-06T14:49:00.102Z,2.30
2023-02-06T14:52:05.161Z,2.42
2023-02-06T14:54:45.198Z,2.40
2023-02-06T14:57:34.126Z,1.98
2023-02-06T15:00:27.096Z,2.63
2023-02-06T15:03:36.991Z,2.83
2023-02-06T15:08:50.609Z,3.00
2023-02-06T15:11:41.975Z,2.40
2023-02-06T15:14:24.928Z,2.92
2023-02-06T15:17:13.374Z,2.58
2023-02-06T15:19:40.030Z,2.80
2023-02-06T15:22:21.181Z,2.63
2023-02-06T15:25:38.530Z,3.00
2023-02-06T15:28:17.084Z,2.65
2023-02-06T15:30:57.300Z,3.25
2023-02-06T15:33:27.943Z,2.70
2023-02-06T15:36:03.064Z,2.70
2023-02-06T15:38:32.360Z,2.53
2023-02-06T15:41:13.044Z,2.30
2023-02-06T15:43:41.774Z,2.78
2023-02-06T15:46:15.247Z,2.63
2023-02-06T15:48:56.024Z,2.20
2023-02-06T15:51:52.177Z,2.80
2023-02-06T15:54:29.053Z,2.78
2023-02-06T15:57:28.483Z,2.92
2023-02-06T16:00:04.077Z,3.08
2023-02-06T16:02:38.257Z,3.42
2023-02-06T16:05:13.354Z,2.80
2023-02-06T16:07:47.171Z,3.67
2023-02-06T16:10:29.071Z,2.72
2023-02-06T16:13:00.220Z,3.10
2023-02-06T16:15:41.066Z,3.80
2023-02-06T16:18:31.582Z,4.07
2023-02-06T16:21:30.068Z,3.97
2023-02-06T16:24:03.407Z,3.10
2023-02-06T16:26:49.072Z,3.40
2023-02-06T16:29:42.130Z,3.53
2023-02-06T16:32:29.021Z,3.08
2023-02-06T16:34:56.458Z,4.13
2023-02-06T16:37:32.059Z,3.65
2023-02-06T16:39:58.839Z,3.30
2023-02-06T16:42:39.042Z,3.38
2023-02-06T16:45:23.631Z,4.40
2023-02-06T16:47:58.180Z,4.03
2023-02-06T16:50:25.021Z,4.45
2023-02-06T16:53:01.076Z,4.40
2023-02-06T16:55:28.967Z,4.32
2023-02-06T16:58:06.035Z,5.05
2023-02-06T17:00:40.108Z,4.72
2023-02-06T17:03:13.057Z,4.68
2023-02-06T17:05:48.112Z,3.13
2023-02-06T17:08:23.289Z,3.17
2023-02-06T17:10:56.985Z,3.30
2023-02-06T17:13:31.125Z,4.20
2023-02-06T17:15:58.032Z,4.00
2023-02-06T17:18:25.001Z,6.72
2023-02-06T17:21:00.264Z,5.25
2023-02-06T17:23:27.007Z,4.32
2023-02-06T17:26:00.148Z,4.65
2023-02-06T17:28:56.129Z,4.22
2023-02-06T17:31:38.112Z,4.35
2023-02-06T17:34:11.138Z,4.65
2023-02-06T17:36:46.095Z,4.40
2023-02-06T17:39:13.447Z,4.53
2023-02-06T17:42:06.091Z,4.18
2023-02-06T17:44:33.108Z,4.90
2023-02-06T17:47:06.239Z,5.28
2023-02-06T17:49:33.112Z,4.35
2023-02-06T17:51:59.812Z,3.97
2023-02-06T17:54:33.152Z,4.32
2023-02-06T17:57:06.130Z,4.05
2023-02-06T17:59:39.182Z,3.95
2023-02-06T18:02:06.278Z,4.20
2023-02-06T18:04:39.106Z,3.47
2023-02-06T18:07:07.545Z,3.75
2023-02-06T18:09:42.289Z,3.72
2023-02-06T18:12:09.992Z,3.20
2023-02-06T18:14:43.073Z,4.07
2023-02-06T18:17:20.674Z,4.70
2023-02-06T18:19:57.476Z,4.75
2023-02-06T18:22:27.184Z,4.13
2023-02-06T18:25:13.270Z,4.13
2023-02-06T18:27:49.475Z,4.97
2023-02-06T18:30:29.607Z,5.38
2023-02-06T18:32:56.707Z,3.47
2023-02-06T18:35:26.910Z,3.17
2023-02-06T18:38:02.278Z,3.72
2023-02-06T18:40:35.178Z,3.55
2023-02-06T18:43:09.287Z,4.00
2023-02-06T18:45:43.760Z,3.80
2023-02-06T18:48:21.290Z,4.37
2023-02-06T18:50:48.912Z,6.95
2023-02-06T18:53:22.412Z,5.87
2023-02-06T18:56:02.736Z,7.53
2023-02-06T18:58:36.186Z,8.80
2023-02-06T19:01:10.474Z,9.57
2023-02-06T19:04:03.464Z,8.77
2023-02-06T19:06:47.795Z,10.20
2023-02-06T19:09:22.372Z,9.43
2023-02-06T19:11:49.217Z,7.47
2023-02-06T19:14:24.108Z,7.73
2023-02-06T19:16:52.651Z,8.30
2023-02-06T19:19:26.334Z,7.93
2023-02-06T19:22:00.188Z,9.97
2023-02-06T19:24:35.225Z,9.13
2023-02-06T19:27:09.238Z,10.13
2023-02-06T19:29:49.255Z,9.47
2023-02-06T19:32:22.361Z,9.57
2023-02-06T19:34:49.105Z,9.63
2023-02-06T19:37:22.124Z,10.63
2023-02-06T19:39:48.965Z,8.77
2023-02-06T19:42:23.270Z,9.27
2023-02-06T19:44:54.933Z,8.90
2023-02-06T19:47:32.290Z,9.07
2023-02-06T19:49:59.171Z,10.00
2023-02-06T19:52:35.520Z,10.03
2023-02-06T19:55:02.590Z,10.30
2023-02-06T19:57:29.276Z,9.37
2023-02-06T20:00:02.163Z,9.70
2023-02-06T20:02:29.018Z,9.47
2023-02-06T20:05:02.798Z,8.93
2023-02-06T20:07:30.678Z,7.87
2023-02-06T20:10:04.279Z,8.00
2023-02-06T20:12:31.679Z,7.47
2023-02-06T20:15:16.486Z,7.20
2023-02-06T20:17:43.287Z,9.07
2023-02-06T20:20:40.817Z,8.60
2023-02-06T20:23:07.685Z,7.60
2023-02-06T20:25:50.278Z,7.27
2023-02-06T20:28:17.326Z,7.27
2023-02-06T20:33:38.885Z,6.90
2023-02-06T20:36:24.283Z,6.73
2023-02-06T20:39:03.387Z,32.20
2023-02-06T20:41:34.610Z,10.70
2023-02-06T20:44:08.630Z,7.03
2023-02-06T20:47:14.371Z,7.37
2023-02-06T20:50:00.245Z,7.93
2023-02-06T20:52:34.220Z,7.40
2023-02-06T20:55:01.782Z,6.77
2023-02-06T20:57:35.499Z,6.63
2023-02-06T21:00:12.297Z,7.80
2023-02-06T21:02:45.057Z,8.83
2023-02-06T21:05:48.648Z,9.63
2023-02-06T21:08:24.822Z,8.00
2023-02-06T21:10:59.243Z,7.10
2023-02-06T21:13:26.160Z,7.60
2023-02-06T21:16:01.226Z,7.00
2023-02-06T21:18:34.522Z,7.37
2023-02-06T21:21:32.759Z,7.13
2023-02-06T21:24:01.906Z,7.10
2023-02-06T21:26:36.234Z,7.13
2023-02-06T21:29:10.437Z,6.60
2023-02-06T21:32:03.853Z,8.50
2023-02-06T21:34:42.116Z,7.27
2023-02-06T21:37:15.186Z,6.17
2023-02-06T21:39:42.153Z,6.60
2023-02-06T21:42:17.138Z,10.03
2023-02-06T21:44:50.610Z,6.93
2023-02-06T21:47:24.396Z,7.07
2023-02-06T21:49:51.324Z,7.53
2023-02-06T21:52:24.416Z,7.20
2023-02-06T21:55:00.159Z,8.17
2023-02-06T21:57:27.089Z,7.73
2023-02-06T22:00:00.184Z,7.93
2023-02-06T22:02:44.979Z,8.13
2023-02-06T22:05:18.672Z,7.37
2023-02-06T22:07:48.268Z,8.17
2023-02-06T22:10:25.367Z,7.20
2023-02-06T22:13:05.380Z,9.10
2023-02-06T22:15:38.078Z,8.00
2023-02-06T22:18:12.206Z,8.37
2023-02-06T22:20:45.384Z,9.30
2023-02-06T22:23:19.186Z,7.87
2023-02-06T22:25:55.373Z,8.60
2023-02-06T22:28:22.211Z,8.67
2023-02-06T22:31:31.302Z,9.17
2023-02-06T22:34:06.205Z,9.93
2023-02-06T22:39:13.910Z,9.30
2023-02-06T22:41:55.447Z,9.80
2023-02-06T22:44:25.079Z,9.73
2023-02-06T22:47:00.552Z,9.33
2023-02-06T22:49:45.111Z,9.67
2023-02-06T22:52:40.228Z,9.30
2023-02-06T22:55:16.688Z,9.73
2023-02-06T22:57:43.321Z,10.27
2023-02-06T23:00:18.257Z,8.53
2023-02-06T23:02:50.515Z,9.73
2023-02-06T23:05:24.457Z,8.53
2023-02-06T23:07:51.720Z,9.67
2023-02-06T23:10:25.640Z,27.27
2023-02-06T23:12:52.508Z,16.87
2023-02-06T23:15:32.280Z,10.97
2023-02-06T23:17:58.960Z,10.37
2023-02-06T23:20:32.413Z,9.87
2023-02-06T23:22:59.085Z,9.07
2023-02-06T23:25:32.393Z,10.73
2023-02-06T23:28:05.309Z,10.57
2023-02-06T23:30:52.294Z,10.07
2023-02-06T23:33:26.191Z,11.07
2023-02-06T23:35:52.989Z,9.23
2023-02-06T23:38:26.218Z,11.40
2023-02-06T23:41:24.825Z,12.67
2023-02-06T23:44:00.349Z,11.23
2023-02-06T23:46:40.302Z,10.67
2023-02-06T23:49:39.530Z,10.60
2023-02-06T23:52:06.318Z,11.27
2023-02-06T23:54:39.327Z,11.13
2023-02-06T23:57:13.231Z,10.50
2023-02-06T23:59:46.375Z,10.60
